createdAt,value
2018-11-22T12:17:43.815Z,2.30
2018-11-22T12:20:13.622Z,2.20
2018-11-22T12:22:43.825Z,2.20
2018-11-22T12:25:14.294Z,2.20
2018-11-22T12:27:43.957Z,2.20
2018-11-22T12:30:14.945Z,2.20
2018-11-22T12:32:48.916Z,2.30
2018-11-22T12:35:22.763Z,2.10
2018-11-22T12:37:56.857Z,2.30
2018-11-22T12:40:25.428Z,2.20
2018-11-22T12:42:54.140Z,2.20
2018-11-22T12:45:22.697Z,2.30
2018-11-22T12:47:51.321Z,2.40
2018-11-22T12:50:19.937Z,2.30
2018-11-22T12:52:48.530Z,2.30
2018-11-22T12:55:17.106Z,2.40
2018-11-22T12:57:45.669Z,2.40
2018-11-22T13:00:16.026Z,2.40
2018-11-22T13:02:44.782Z,2.40
2018-11-22T13:05:14.719Z,2.50
2018-11-22T13:07:43.287Z,2.60
2018-11-22T13:10:13.417Z,2.60
2018-11-22T13:12:43.318Z,2.70
2018-11-22T13:15:13.763Z,2.60
2018-11-22T13:17:42.328Z,2.50
2018-11-22T13:20:13.243Z,2.50
2018-11-22T13:22:41.815Z,2.50
2018-11-22T13:25:13.302Z,2.70
2018-11-22T13:27:42.272Z,2.60
2018-11-22T13:30:14.051Z,2.60
2018-11-22T13:32:43.136Z,2.50
2018-11-22T13:35:12.622Z,2.60
2018-11-22T13:37:42.127Z,2.60
2018-11-22T13:40:11.642Z,2.60
2018-11-22T13:42:41.122Z,2.60
2018-11-22T13:45:12.133Z,2.70
2018-11-22T13:47:42.058Z,2.70
2018-11-22T13:50:15.041Z,2.60
2018-11-22T13:52:44.277Z,2.60
2018-11-22T13:55:13.051Z,2.60
2018-11-22T13:57:41.830Z,2.60
2018-11-22T14:00:13.982Z,2.70
2018-11-22T14:02:42.602Z,2.70
2018-11-22T14:05:11.714Z,2.70
2018-11-22T14:07:39.917Z,2.60
2018-11-22T14:10:11.435Z,2.70
2018-11-22T14:12:40.370Z,2.60
2018-11-22T14:15:12.189Z,2.60
2018-11-22T14:17:41.114Z,2.70
2018-11-22T14:20:12.922Z,2.70
2018-11-22T14:22:41.452Z,2.60
2018-11-22T14:25:11.298Z,2.60
2018-11-22T14:27:40.594Z,2.60
2018-11-22T14:30:12.184Z,2.70
2018-11-22T14:32:41.655Z,2.70
2018-11-22T14:35:11.913Z,2.50
2018-11-22T14:37:40.858Z,2.50
2018-11-22T14:40:12.630Z,2.60
2018-11-22T14:42:41.599Z,2.60
2018-11-22T14:45:11.727Z,2.60
2018-11-22T14:47:40.626Z,2.50
2018-11-22T14:50:16.190Z,2.40
2018-11-22T14:52:47.212Z,2.40
2018-11-22T14:55:15.837Z,2.40
2018-11-22T14:57:45.203Z,2.30
2018-11-22T15:00:15.621Z,2.40
2018-11-22T15:02:45.725Z,2.20
2018-11-22T15:05:14.817Z,2.20
2018-11-22T15:07:44.033Z,2.20
2018-11-22T15:10:13.931Z,2.20
2018-11-22T15:12:44.145Z,2.20
2018-11-22T15:15:15.546Z,2.10
2018-11-22T15:17:44.081Z,2.10
2018-11-22T15:20:14.315Z,2.10
2018-11-22T15:22:43.602Z,2.10
2018-11-22T15:25:13.634Z,2.10
2018-11-22T15:27:43.006Z,2.10
2018-11-22T15:30:14.702Z,2.20
2018-11-22T15:32:43.296Z,2.10
2018-11-22T15:35:13.544Z,2.10
2018-11-22T15:37:42.478Z,2.10
2018-11-22T15:40:13.926Z,2.10
2018-11-22T15:42:42.907Z,2.10
2018-11-22T15:45:15.274Z,2.10
2018-11-22T15:47:44.453Z,2.10
2018-11-22T15:50:14.387Z,2.00
2018-11-22T15:52:43.488Z,2.00
2018-11-22T15:55:12.768Z,2.00
2018-11-22T15:57:42.366Z,2.00
2018-11-22T16:01:13.819Z,1.90
2018-11-22T16:03:42.397Z,1.90
2018-11-22T16:06:10.974Z,1.80
2018-11-22T16:08:39.527Z,1.80
2018-11-22T16:11:10.893Z,1.80
2018-11-22T16:13:36.751Z,1.80
2018-11-22T16:16:06.292Z,1.80
2018-11-22T16:18:36.058Z,1.80
2018-11-22T16:21:03.589Z,1.70
2018-11-22T16:23:32.137Z,1.70
2018-11-22T16:26:00.739Z,1.70
2018-11-22T16:28:29.302Z,1.70
2018-11-22T16:30:57.890Z,1.70
2018-11-22T16:33:26.453Z,1.70
2018-11-22T16:35:55.026Z,1.60
2018-11-22T16:38:23.683Z,1.60
2018-11-22T16:40:52.322Z,1.60
2018-11-22T16:43:20.951Z,1.50
2018-11-22T16:45:49.493Z,1.50
2018-11-22T16:48:18.045Z,1.50
2018-11-22T16:50:46.566Z,1.50
2018-11-22T16:53:15.110Z,1.50
2018-11-22T16:55:43.846Z,1.40
2018-11-22T16:58:12.455Z,1.40
2018-11-22T17:00:41.338Z,1.50
2018-11-22T17:03:11.959Z,1.40
2018-11-22T17:05:41.161Z,1.40
2018-11-22T17:08:10.149Z,1.50
2018-11-22T17:10:39.314Z,1.40
2018-11-22T17:13:08.280Z,1.40
2018-11-22T17:15:39.166Z,1.40
2018-11-22T17:18:09.070Z,1.40
2018-11-22T17:20:37.710Z,1.30
2018-11-22T17:23:06.882Z,1.30
2018-11-22T17:25:36.178Z,1.20
2018-11-22T17:28:06.071Z,1.20
2018-11-22T17:30:38.556Z,1.10
2018-11-22T17:33:07.222Z,1.10
2018-11-22T17:35:36.035Z,1.10
2018-11-22T17:38:05.947Z,1.00
2018-11-22T17:40:37.291Z,1.00
2018-11-22T17:43:06.592Z,1.00
2018-11-22T17:45:39.583Z,1.00
2018-11-22T17:48:08.694Z,1.10
2018-11-22T17:50:39.213Z,1.10
2018-11-22T17:53:08.369Z,1.10
2018-11-22T17:55:37.282Z,1.10
2018-11-22T17:58:06.124Z,1.10
2018-11-22T18:00:39.239Z,1.10
2018-11-22T18:03:08.470Z,1.10
2018-11-22T18:05:37.513Z,1.10
2018-11-22T18:08:06.486Z,1.10
2018-11-22T18:10:36.835Z,1.10
2018-11-22T18:13:05.550Z,1.10
2018-11-22T18:16:06.020Z,1.10
2018-11-22T18:18:34.704Z,1.00
2018-11-22T18:21:03.302Z,1.00
2018-11-22T18:23:32.014Z,1.00
2018-11-22T18:26:00.837Z,1.00
2018-11-22T18:28:29.602Z,0.90
2018-11-22T18:30:58.200Z,0.90
2018-11-22T18:33:27.137Z,1.00
2018-11-22T18:35:55.671Z,1.00
2018-11-22T18:38:24.327Z,0.90
2018-11-22T18:40:53.190Z,0.90
2018-11-22T18:43:21.774Z,0.90
2018-11-22T18:45:50.674Z,0.90
2018-11-22T18:48:20.603Z,0.80
2018-11-22T18:50:49.591Z,0.80
2018-11-22T18:53:18.171Z,0.90
2018-11-22T18:55:46.919Z,0.80
2018-11-22T18:58:15.462Z,0.80
2018-11-22T19:00:45.346Z,0.70
2018-11-22T19:03:15.788Z,0.70
2018-11-22T19:05:44.463Z,0.80
2018-11-22T19:08:13.084Z,0.80
2018-11-22T19:10:42.353Z,0.80
2018-11-22T19:13:11.716Z,0.80
2018-11-22T19:15:41.750Z,0.80
2018-11-22T19:18:11.145Z,0.90
2018-11-22T19:20:41.198Z,0.90
2018-11-22T19:23:11.694Z,0.90
2018-11-22T19:25:40.504Z,0.90
2018-11-22T19:28:09.767Z,0.90
2018-11-22T19:30:40.834Z,0.90
2018-11-22T19:33:11.166Z,0.90
2018-11-22T19:35:42.500Z,0.90
2018-11-22T19:38:11.094Z,1.00
2018-11-22T19:40:40.412Z,1.00
2018-11-22T19:43:09.956Z,1.10
2018-11-22T19:45:40.138Z,1.10
2018-11-22T19:48:09.090Z,1.10
2018-11-22T19:50:37.861Z,1.20
2018-11-22T19:53:08.184Z,1.10
2018-11-22T19:55:37.746Z,1.10
2018-11-22T19:58:07.981Z,1.10
2018-11-22T20:00:36.727Z,1.10
2018-11-22T20:03:06.458Z,1.10
2018-11-22T20:05:36.623Z,1.10
2018-11-22T20:08:07.285Z,1.10
2018-11-22T20:10:37.515Z,1.00
2018-11-22T20:13:06.633Z,1.00
2018-11-22T20:15:35.499Z,1.00
2018-11-22T20:18:05.345Z,1.00
2018-11-22T20:20:33.925Z,1.00
2018-11-22T20:23:02.652Z,1.00
2018-11-22T20:25:31.437Z,1.00
2018-11-22T20:27:59.976Z,1.00
2018-11-22T20:30:30.347Z,1.00
2018-11-22T20:32:58.971Z,1.00
2018-11-22T20:35:28.019Z,0.90
2018-11-22T20:37:56.611Z,0.90
2018-11-22T20:40:26.273Z,0.90
2018-11-22T20:42:55.102Z,0.90
2018-11-22T20:45:24.862Z,0.80
2018-11-22T20:47:57.057Z,0.80
2018-11-22T20:50:26.783Z,0.80
2018-11-22T20:52:55.548Z,0.80
2018-11-22T20:55:26.534Z,0.90
2018-11-22T20:57:59.497Z,0.80
2018-11-22T21:00:29.324Z,0.80
2018-11-22T21:02:57.932Z,0.90
2018-11-22T21:05:27.192Z,0.90
2018-11-22T21:07:55.856Z,0.80
2018-11-22T21:10:25.890Z,0.80
2018-11-22T21:12:54.525Z,0.70
2018-11-22T21:15:25.386Z,0.70
2018-11-22T21:17:56.840Z,0.60
2018-11-22T21:20:29.020Z,0.70
2018-11-22T21:22:57.711Z,0.70
2018-11-22T21:25:26.575Z,0.70
2018-11-22T21:27:55.213Z,0.60
2018-11-22T21:30:27.355Z,0.60
2018-11-22T21:32:56.634Z,0.60
2018-11-22T21:35:25.221Z,0.60
2018-11-22T21:37:55.030Z,0.60
2018-11-22T21:40:24.215Z,0.60
2018-11-22T21:42:52.890Z,0.60
2018-11-22T21:45:22.790Z,0.40
2018-11-22T21:47:51.520Z,0.50
2018-11-22T21:50:21.442Z,0.50
2018-11-22T21:52:50.248Z,0.50
2018-11-22T21:55:20.321Z,0.50
2018-11-22T21:57:49.511Z,0.50
2018-11-22T22:00:21.903Z,0.60
2018-11-22T22:02:52.978Z,0.50
2018-11-22T22:05:21.385Z,0.50
2018-11-22T22:07:50.013Z,0.50
2018-11-22T22:10:18.602Z,0.50
2018-11-22T22:12:47.245Z,0.50
2018-11-22T22:15:18.285Z,0.40
2018-11-22T22:17:47.297Z,0.40
2018-11-22T22:20:17.431Z,0.50
2018-11-22T22:22:46.175Z,0.40
2018-11-22T22:25:17.134Z,0.40
2018-11-22T22:27:46.187Z,0.40
2018-11-22T22:30:23.034Z,0.40
2018-11-22T22:32:53.078Z,0.40
2018-11-22T22:35:21.807Z,0.40
2018-11-22T22:37:50.474Z,0.50
2018-11-22T22:40:20.485Z,0.50
2018-11-22T22:42:49.990Z,0.40
2018-11-22T22:45:19.525Z,0.30
2018-11-22T22:47:48.993Z,0.40
2018-11-22T22:50:20.871Z,0.40
2018-11-22T22:52:50.867Z,0.40
2018-11-22T22:55:19.429Z,0.40
2018-11-22T22:57:47.988Z,0.40
2018-11-22T23:00:24.783Z,0.40
2018-11-22T23:02:55.742Z,0.30
2018-11-22T23:05:25.070Z,0.30
2018-11-22T23:07:53.730Z,0.30
2018-11-22T23:10:22.779Z,0.30
2018-11-22T23:12:51.501Z,0.40
2018-11-22T23:15:20.635Z,0.30
2018-11-22T23:17:49.363Z,0.30
2018-11-22T23:20:21.074Z,0.30
2018-11-22T23:22:50.164Z,0.30
2018-11-22T23:25:20.039Z,0.20
